PADL/DLG METAR and TAF weather

Enter ICAO airport designator
Station Type Date Time Source
PADL METAR 2020/08/14 01:56 UTC NOAA

PADL 140156Z 08008KT 10SM FEW065 22/07 A2996 RMK AO2 SLP147 T02170072


Station Type Date Time Source
PADL Decoded METAR 2020/08/14 01:56 UTC NOAA

Dillingham, Dillingham Airport, AK, United States (PADL) 59-03N 158-31W 29M
Aug 13, 2020 - 09:56 PM EDT / 2020.08.14 0156 UTC
Wind: from the E (080 degrees) at 9 MPH (8 KT):0
Visibility: 10 mile(s):0
Sky conditions: mostly clear
Temperature: 71.1 F (21.7 C)
Dew Point: 45.0 F (7.2 C)
Relative Humidity: 39%
Pressure (altimeter): 29.96 in. Hg (1014 hPa)
ob: PADL 140156Z 08008KT 10SM FEW065 22/07 A2996 RMK AO2 SLP147 T02170072
cycle: 2

Station Type Date Time Source
PADL TAF 2020/08/13 18:30 UTC NOAA

TAF PADL 131727Z 1318/1418 VRB06KT P6SM SKC

Example: see airport list